首页
METAR-TAF:

METAR-TAF

机场 :

都灵, 意大利

纬度: 45-05-20N, 经度: 007-36-20E, 海拔: 288米

当前天气观测

该预报发布于3小时和48分钟前的16:50 UTC
风速3节,风向,在南转南东西北之间变化
温度 13°C
湿度 38%
气压 1011 hPa
能见度10公里或以上
1500米以下无云,无积雨云

METAR: LIMA 021650Z 19003KT 150V320 CAVOK 13/M01 Q1011

时间: 22:38 (20:38 UTC)


TAF: 丢失

超过4000个机场的气象观测和天气预报(METAR&TAF报告)。

可查询的气象台以黄色和红色小点在地图上表示。

将鼠标移到小点上方,可查看气象台名称。

然后点击查看天气观测和预报。

如需切换地图:点击带黑十字的绿色按钮放大地图;点击带横线的绿色按钮缩小地图;或者点击绿色箭头查看邻近地区的地图。


METAR-TAF: